Time;durP1;ratioP1;P1;durP2;ratioP2;P2;SDS_P1;SDS_P2;PMS_P1;PMS_P2;Temp;Humidity;BMP_temperature;BMP_pressure;BME280_temperature;BME280_humidity;BME280_pressure;Samples;Min_cycle;Max_cycle;Signal;HPM_P1;HPM_P2
2021/06/11 00:00:12;;;;;;;6.57;5.87;;;14.50;1.40;;;16.37;100.00;95676.66;648129;212;31532;-70
2021/06/11 00:02:53;;;;;;;6.65;6.15;;;14.40;1.40;;;16.32;100.00;95675.14;646903;216;31625;-70
2021/06/11 00:05:35;;;;;;;6.55;6.05;;;14.30;1.40;;;16.31;100.00;95672.91;618661;226;32103;-70
2021/06/11 00:08:17;;;;;;;6.90;6.30;;;14.30;1.40;;;16.32;100.00;95674.11;646972;216;32016;-70
2021/06/11 00:10:58;;;;;;;7.03;6.43;;;14.20;1.40;;;16.23;100.00;95669.22;649145;216;31534;-70
2021/06/11 00:13:40;;;;;;;7.40;6.80;;;14.30;1.40;;;16.12;100.00;95662.45;649821;216;31520;-70
2021/06/11 00:16:22;;;;;;;7.82;7.10;;;14.20;1.40;;;15.99;100.00;95661.70;647523;212;31540;-70
2021/06/11 00:19:03;;;;;;;7.40;6.80;;;14.10;1.40;;;15.95;100.00;95659.22;647257;216;31571;-70
2021/06/11 00:21:45;;;;;;;6.97;6.28;;;14.20;1.40;;;15.98;100.00;95651.31;645932;212;31531;-70
2021/06/11 00:24:30;;;;;;;6.30;5.80;;;14.30;1.40;;;16.05;100.00;95660.17;645703;216;31558;-71
2021/06/11 00:27:11;;;;;;;6.85;6.35;;;14.40;1.40;;;15.99;100.00;95658.70;648001;216;42172;-70
2021/06/11 00:29:53;;;;;;;6.75;6.15;;;14.50;1.40;;;16.02;100.00;95657.14;645707;212;31531;-69
2021/06/11 00:32:35;;;;;;;6.28;5.78;;;14.50;1.40;;;16.07;100.00;95652.98;644770;212;42598;-71
2021/06/11 00:35:52;;;;;;;6.20;5.72;;;14.40;1.40;;;16.04;100.00;95650.73;619610;226;31946;-70
2021/06/11 00:41:08;;;;;;;7.00;6.40;;;14.30;1.40;;;16.09;100.00;95650.59;649311;216;31508;-69
2021/06/11 00:43:49;;;;;;;6.87;6.20;;;14.20;1.40;;;15.96;100.00;95649.31;646566;216;42334;-69
2021/06/11 00:46:31;;;;;;;7.37;6.77;;;14.10;1.40;;;15.86;100.00;95653.81;618096;222;31900;-70
2021/06/11 00:49:13;;;;;;;7.03;6.32;;;14.00;1.40;;;15.77;100.00;95651.75;645887;216;32270;-72
2021/06/11 00:51:55;;;;;;;7.35;6.60;;;13.80;1.40;;;15.68;100.00;95652.69;646540;216;35772;-70
2021/06/11 00:54:36;;;;;;;7.87;7.18;;;13.80;1.40;;;15.60;100.00;95655.12;648252;212;31581;-71
2021/06/11 00:59:52;;;;;;;7.40;6.70;;;13.80;1.40;;;15.50;100.00;95658.63;621397;226;32138;-71
2021/06/11 01:02:34;;;;;;;7.10;6.50;;;13.80;1.40;;;15.52;100.00;95654.19;648463;216;42615;-69
2021/06/11 01:05:17;;;;;;;6.47;5.97;;;13.80;1.40;;;15.56;100.00;95656.80;643561;216;40683;-70
2021/06/11 01:07:58;;;;;;;7.00;6.43;;;13.80;1.40;;;15.63;100.00;95658.68;645572;212;31614;-70
2021/06/11 01:10:40;;;;;;;6.50;6.00;;;13.80;1.40;;;15.82;100.00;95663.76;646275;212;42254;-69
2021/06/11 01:13:22;;;;;;;6.75;6.15;;;13.80;1.40;;;15.79;100.00;95671.42;646373;212;40628;-70
2021/06/11 01:16:03;;;;;;;6.87;6.28;;;13.80;1.40;;;;;;635431;216;31718;-70
2021/06/11 01:18:44;;;;;;;7.15;6.53;;;13.70;1.40;;;;;;646586;213;31568;-70
2021/06/11 01:21:28;;;;;;;6.50;5.93;;;13.60;1.40;;;;;;647397;212;42217;-69
2021/06/11 01:26:44;;;;;;;7.70;7.00;;;13.70;1.40;;;;;;649085;212;31571;-70
2021/06/11 01:29:26;;;;;;;9.20;8.40;;;13.80;1.40;;;;;;649760;212;31736;-70
2021/06/11 01:32:07;;;;;;;7.90;7.20;;;13.80;1.40;;;;;;646768;216;31648;-69
2021/06/11 01:35:53;;;;;;;8.20;7.60;;;14.00;1.40;;;-143.44;100.00;122422.95;647926;212;31590;-70
2021/06/11 01:38:36;;;;;;;8.90;8.20;;;14.10;1.40;;;;;;648414;216;31704;-70
2021/06/11 01:41:15;;;;;;;8.30;7.60;;;14.00;1.40;;;;;;645455;212;31968;-71
2021/06/11 01:43:59;;;;;;;8.50;7.70;;;14.00;1.40;;;;;;645117;212;32118;-71
2021/06/11 01:46:41;;;;;;;8.00;7.20;;;13.90;1.40;;;;;;648708;212;32104;-71
2021/06/11 01:49:22;;;;;;;8.17;7.37;;;13.90;1.40;;;;;;647709;212;32233;-69
2021/06/11 01:52:03;;;;;;;8.50;7.15;;;13.80;1.40;;;;;;647765;216;31557;-68
2021/06/11 01:54:44;;;;;;;7.70;7.10;;;13.70;1.40;;;;;;646097;216;32232;-70
2021/06/11 01:57:25;;;;;;;8.25;7.45;;;13.60;1.40;;;;;;648837;216;32079;-69
2021/06/11 02:00:07;;;;;;;7.10;6.50;;;13.60;1.40;;;;;;646999;212;31652;-70
2021/06/11 02:02:48;;;;;;;7.27;6.57;;;13.50;1.40;;;;;;646011;216;32077;-70
2021/06/11 02:05:29;;;;;;;7.87;7.10;;;13.40;1.40;;;;;;646702;216;32153;-70
2021/06/11 02:08:10;;;;;;;6.60;6.00;;;13.40;1.40;;;;;;646120;212;31817;-70
2021/06/11 02:10:51;;;;;;;6.90;6.30;;;13.30;1.40;;;;;;647078;216;31569;-70
2021/06/11 02:13:35;;;;;;;7.50;6.80;;;13.20;1.40;;;;;;648941;212;31580;-69
2021/06/11 02:16:16;;;;;;;7.80;7.10;;;13.20;1.40;;;;;;644492;212;31609;-70
2021/06/11 02:18:58;;;;;;;7.80;7.10;;;13.20;1.40;;;;;;646402;212;31572;-70
2021/06/11 02:21:39;;;;;;;7.60;6.83;;;13.20;1.40;;;;;;647756;216;32166;-70
2021/06/11 02:24:20;;;;;;;8.55;7.62;;;13.20;1.40;;;;;;644889;212;32162;-70
2021/06/11 02:27:01;;;;;;;7.82;7.12;;;13.20;1.40;;;;;;646487;212;31626;-70
2021/06/11 02:29:42;;;;;;;8.30;7.50;;;13.10;1.40;;;;;;648739;216;31570;-70
2021/06/11 02:32:23;;;;;;;7.50;6.80;;;13.00;1.40;;;;;;648975;216;42704;-70
2021/06/11 02:35:51;;;;;;;8.80;7.90;;;13.00;1.40;;;14.74;100.00;95634.42;649362;216;32309;-70
2021/06/11 02:38:32;;;;;;;8.38;7.68;;;13.10;1.40;;;14.66;100.00;95632.08;641832;215;31577;-69
2021/06/11 02:41:14;;;;;;;9.20;7.23;;;13.00;1.40;;;14.55;100.00;95634.48;649014;216;31578;-70
2021/06/11 02:43:59;;;;;;;8.43;7.73;;;12.90;1.40;;;14.48;100.00;95637.59;647477;212;35615;-70
2021/06/11 02:46:48;;;;;;;9.80;7.70;;;12.90;1.40;;;14.40;100.00;95634.13;622701;222;36145;-70
2021/06/11 02:49:30;;;;;;;8.48;7.78;;;12.80;1.40;;;14.37;100.00;95631.05;648041;216;31577;-69
2021/06/11 02:52:12;;;;;;;8.13;7.17;;;12.80;1.40;;;14.36;100.00;95635.08;646187;212;31575;-70
2021/06/11 02:54:56;;;;;;;7.80;7.20;;;12.60;1.40;;;14.25;100.00;95637.94;647364;212;31735;-70
2021/06/11 02:58:15;;;;;;;8.30;7.60;;;12.60;1.40;;;14.24;100.00;95635.91;647571;216;31598;-70
2021/06/11 03:00:56;;;;;;;8.60;7.80;;;12.70;1.40;;;14.27;100.00;95638.63;648346;212;31615;-69
2021/06/11 03:03:39;;;;;;;8.30;7.50;;;12.70;1.40;;;14.39;100.00;95633.62;647975;212;31560;-69
2021/06/11 03:06:20;;;;;;;8.87;7.97;;;12.80;1.40;;;14.58;100.00;95641.09;620197;226;31914;-70
2021/06/11 03:11:39;;;;;;;8.27;7.57;;;12.90;1.40;;;-143.44;100.00;122422.95;646742;216;31683;-70
2021/06/11 03:14:17;;;;;;;8.27;7.47;;;13.00;1.40;;;;;;643652;212;42351;-70
2021/06/11 03:16:58;;;;;;;8.60;7.80;;;13.10;1.40;;;;;;646659;212;31583;-70
2021/06/11 03:19:39;;;;;;;8.60;7.90;;;13.20;1.40;;;;;;648711;212;31574;-71
2021/06/11 03:22:20;;;;;;;8.10;7.40;;;13.20;1.40;;;;;;646762;216;31641;-70
2021/06/11 03:25:05;;;;;;;8.73;7.83;;;13.30;1.40;;;;;;645063;212;42213;-70
2021/06/11 03:27:48;;;;;;;8.32;7.62;;;13.40;1.40;;;;;;649286;216;31739;-70
2021/06/11 03:30:29;;;;;;;9.03;8.23;;;13.40;1.40;;;;;;647439;216;31953;-70
2021/06/11 03:36:14;;;;;;;9.02;8.13;;;13.60;1.40;;;15.08;100.00;95650.00;646415;212;31596;-70
2021/06/11 03:38:56;;;;;;;9.32;8.50;;;13.70;1.40;;;15.13;100.00;95649.88;647670;216;37665;-70
2021/06/11 03:41:38;;;;;;;8.87;8.07;;;13.70;1.40;;;15.05;100.00;95651.59;645203;212;42405;-70
2021/06/11 03:44:19;;;;;;;8.90;8.00;;;13.70;1.40;;;15.15;100.00;95656.19;642691;215;31615;-70
2021/06/11 03:47:01;;;;;;;7.97;7.28;;;13.60;1.40;;;15.23;100.00;95660.01;649561;216;36924;-70
2021/06/11 03:49:43;;;;;;;8.30;7.50;;;13.60;1.40;;;15.25;100.00;95656.37;645496;216;31593;-70
2021/06/11 03:52:25;;;;;;;7.97;7.23;;;13.70;1.40;;;15.30;100.00;95660.32;648418;216;31587;-70
2021/06/11 03:55:14;;;;;;;7.43;6.80;;;13.70;1.40;;;15.41;100.00;95662.38;647602;212;31645;-70
2021/06/11 03:58:00;;;;;;;7.97;7.28;;;13.80;1.40;;;15.38;100.00;95659.99;645484;216;39021;-69
2021/06/11 04:00:42;;;;;;;7.65;7.00;;;13.70;1.40;;;15.39;100.00;95661.48;643823;216;33988;-69
2021/06/11 04:03:23;;;;;;;7.80;7.10;;;13.80;1.40;;;15.23;100.00;95660.78;647144;212;33069;-70
2021/06/11 04:06:05;;;;;;;7.95;7.15;;;13.80;1.40;;;15.25;100.00;95666.53;648682;212;31673;-70
2021/06/11 04:08:47;;;;;;;7.55;6.85;;;13.80;1.40;;;15.14;100.00;95665.30;617926;222;40872;-71
2021/06/11 04:11:28;;;;;;;8.23;7.62;;;13.70;1.40;;;15.21;100.00;95665.17;646798;212;42752;-70
2021/06/11 04:14:10;;;;;;;7.60;6.90;;;13.70;1.40;;;15.09;100.00;95668.20;618297;222;43323;-70
2021/06/11 04:16:53;;;;;;;8.43;6.75;;;13.70;1.40;;;15.32;100.00;95671.17;631549;217;31706;-70
2021/06/11 04:19:44;;;;;;;8.10;7.30;;;13.70;1.40;;;15.48;100.00;95676.34;649964;212;31545;-70
2021/06/11 04:22:30;;;;;;;8.00;7.30;;;13.80;1.40;;;15.41;100.00;95674.47;619380;222;39306;-71
2021/06/11 04:25:12;;;;;;;8.70;7.43;;;13.90;1.40;;;15.46;100.00;95673.80;630567;221;31708;-70
2021/06/11 04:27:54;;;;;;;8.10;7.30;;;14.00;1.40;;;15.45;100.00;95676.67;621263;226;37662;-70
2021/06/11 04:30:35;;;;;;;8.20;7.50;;;14.00;1.40;;;15.52;100.00;95683.66;644806;216;31596;-70
2021/06/11 04:35:52;;;;;;;8.25;7.50;;;14.10;1.40;;;15.37;100.00;95690.06;647055;212;31547;-70
2021/06/11 04:38:36;;;;;;;7.63;6.93;;;14.10;1.40;;;15.42;100.00;95686.01;618161;222;32045;-70
2021/06/11 04:41:21;;;;;;;7.60;6.90;;;14.10;1.40;;;15.40;100.00;95685.27;647446;216;32699;-70
2021/06/11 04:44:03;;;;;;;8.65;7.85;;;14.20;1.40;;;15.57;100.00;95690.27;645659;216;32172;-71
2021/06/11 04:46:44;;;;;;;8.27;7.47;;;14.30;1.40;;;15.78;100.00;95693.20;644599;216;31597;-71
2021/06/11 04:49:26;;;;;;;8.88;8.10;;;14.40;1.40;;;15.79;100.00;95692.39;650382;213;42177;-71
2021/06/11 04:52:08;;;;;;;8.98;8.18;;;14.40;1.40;;;15.72;100.00;95698.52;648426;212;31565;-69
2021/06/11 04:54:49;;;;;;;8.73;7.43;;;14.50;1.40;;;15.79;100.00;95697.97;646638;213;42205;-70
2021/06/11 04:57:31;;;;;;;8.57;7.87;;;14.60;1.40;;;15.87;100.00;95699.14;649340;216;42179;-70
2021/06/11 05:00:14;;;;;;;9.07;8.18;;;14.80;1.40;;;15.93;100.00;95696.98;645776;216;42251;-71
2021/06/11 05:02:59;;;;;;;8.88;8.07;;;14.80;1.40;;;15.93;100.00;95701.29;646048;212;42210;-71
2021/06/11 05:05:40;;;;;;;8.98;8.10;;;14.80;1.40;;;16.06;100.00;95702.36;646066;212;32520;-70
2021/06/11 05:08:25;;;;;;;8.93;8.13;;;14.90;1.40;;;16.24;100.00;95702.33;648302;216;31564;-71
2021/06/11 05:11:07;;;;;;;9.15;8.25;;;15.10;1.40;;;16.39;100.00;95708.47;647510;212;31542;-71
2021/06/11 05:13:48;;;;;;;8.77;7.93;;;15.20;1.40;;;16.41;100.00;95708.91;648272;213;31539;-70
2021/06/11 05:16:31;;;;;;;8.95;8.07;;;15.20;1.40;;;16.41;100.00;95711.13;617974;226;32072;-71
2021/06/11 05:19:18;;;;;;;8.40;7.70;;;15.30;1.40;;;16.46;100.00;95708.56;648570;216;31567;-73
2021/06/11 05:22:05;;;;;;;8.50;7.80;;;15.40;1.40;;;16.65;100.00;95710.14;646699;216;31837;-70
2021/06/11 05:24:47;;;;;;;8.65;7.75;;;15.40;1.40;;;16.67;100.00;95713.69;646111;216;32036;-69
2021/06/11 05:27:29;;;;;;;9.20;8.30;;;15.50;1.40;;;16.85;100.00;95718.00;646133;216;31482;-71
2021/06/11 05:30:12;;;;;;;9.10;8.30;;;15.50;1.40;;;16.93;100.00;95716.36;623901;226;32294;-70
2021/06/11 05:32:54;;;;;;;9.90;8.90;;;15.60;1.40;;;16.90;100.00;95714.84;647316;216;31563;-71
2021/06/11 05:35:53;;;;;;;8.88;7.97;;;15.60;1.40;;;16.94;100.00;95714.97;646343;216;31725;-71
2021/06/11 05:38:35;;;;;;;9.40;7.80;;;15.60;1.40;;;17.09;100.00;95717.97;618226;226;32122;-70
2021/06/11 05:41:20;;;;;;;8.95;8.20;;;15.80;1.40;;;17.17;100.00;95715.16;649276;216;31521;-70
2021/06/11 05:44:02;;;;;;;9.20;8.30;;;15.90;1.40;;;17.25;100.00;95719.12;645927;212;31578;-71
2021/06/11 05:46:43;;;;;;;8.10;7.40;;;16.00;1.40;;;17.31;100.00;95718.95;644744;216;31711;-71
2021/06/11 05:49:25;;;;;;;9.10;8.20;;;16.10;1.40;;;17.33;100.00;95715.77;648697;216;31652;-71
2021/06/11 05:52:07;;;;;;;8.30;7.50;;;16.10;1.40;;;17.49;100.00;95717.71;645691;216;32372;-70
2021/06/11 05:54:48;;;;;;;8.20;7.50;;;16.20;1.40;;;17.61;100.00;95715.52;647227;216;32070;-70
2021/06/11 05:57:33;;;;;;;7.90;7.20;;;16.40;1.40;;;17.59;100.00;95717.07;646857;216;31558;-70
2021/06/11 06:00:16;;;;;;;8.00;7.30;;;16.50;1.40;;;17.67;99.85;95718.11;620022;222;31842;-70
2021/06/11 06:02:57;;;;;;;8.10;7.30;;;16.60;1.40;;;17.78;95.73;95723.09;645674;216;31795;-71
2021/06/11 06:05:40;;;;;;;7.22;6.62;;;16.60;1.40;;;17.90;93.97;95727.12;645789;212;31692;-70
2021/06/11 06:08:22;;;;;;;8.00;7.30;;;16.70;1.40;;;18.08;91.96;95729.63;652020;212;31627;-70
2021/06/11 06:11:06;;;;;;;7.55;6.95;;;16.80;1.40;;;18.16;89.36;95731.74;647186;212;31568;-71
2021/06/11 06:13:48;;;;;;;7.55;6.75;;;16.90;1.40;;;18.14;89.94;95729.30;646225;212;31551;-70
2021/06/11 06:16:30;;;;;;;7.37;6.47;;;16.90;1.40;;;18.19;86.17;95731.06;648815;216;31817;-69
2021/06/11 06:19:15;;;;;;;6.93;6.32;;;16.80;1.40;;;18.42;88.06;95729.62;649515;213;31611;-70
2021/06/11 06:21:56;;;;;;;7.10;6.37;;;16.90;1.40;;;18.58;87.19;95728.63;649197;216;31635;-74
2021/06/11 06:24:38;;;;;;;7.55;6.75;;;17.10;1.40;;;18.63;84.50;95723.28;645774;216;31535;-70
2021/06/11 06:27:20;;;;;;;6.30;5.80;;;17.20;1.40;;;18.62;84.82;95728.69;645567;212;31559;-70
2021/06/11 06:30:01;;;;;;;7.47;6.22;;;17.10;1.40;;;18.75;83.59;95727.17;646286;216;31571;-71
2021/06/11 06:32:43;;;;;;;6.68;5.90;;;17.30;1.40;;;18.82;83.41;95730.03;644583;212;31700;-71
2021/06/11 06:38:28;;;;;;;6.22;5.62;;;17.50;1.40;;;19.22;82.39;95733.11;648021;216;31980;-72
2021/06/11 06:41:17;;;;;;;6.40;5.80;;;17.60;1.40;;;19.30;80.67;95735.23;646759;216;31543;-72
2021/06/11 06:44:03;;;;;;;5.97;5.47;;;17.80;1.40;;;19.11;78.53;95734.62;647190;216;31538;-72
2021/06/11 06:46:45;;;;;;;6.00;5.40;;;17.70;1.40;;;19.05;77.55;95734.14;647390;216;31569;-70
2021/06/11 06:49:27;;;;;;;6.20;5.60;;;17.70;1.40;;;19.20;80.64;95728.91;645074;212;32194;-69
2021/06/11 06:52:09;;;;;;;6.03;5.43;;;17.60;1.40;;;19.32;78.03;95726.00;645332;216;32152;-72
2021/06/11 06:54:50;;;;;;;5.62;5.12;;;17.80;1.40;;;19.42;77.05;95726.22;619033;222;31900;-71
2021/06/11 06:57:32;;;;;;;6.22;5.62;;;17.90;1.40;;;19.32;77.84;95721.67;618139;222;32351;-71
2021/06/11 07:00:15;;;;;;;5.62;5.12;;;18.00;1.40;;;19.71;77.38;95718.80;648902;212;31559;-71
2021/06/11 07:03:00;;;;;;;6.28;5.70;;;18.20;1.40;;;19.80;76.21;95719.78;645602;216;31567;-70
2021/06/11 07:05:42;;;;;;;5.45;5.05;;;18.20;1.40;;;19.76;75.76;95715.20;646240;216;31572;-71
2021/06/11 07:08:26;;;;;;;5.55;5.10;;;18.20;1.40;;;19.77;75.45;95719.28;648010;212;31643;-71
2021/06/11 07:11:06;;;;;;;5.30;4.90;;;18.30;1.40;;;19.80;75.43;95723.25;646595;216;32490;-70
2021/06/11 07:13:47;;;;;;;5.93;5.33;;;18.30;1.40;;;19.67;75.50;95725.27;647488;212;31665;-71
2021/06/11 07:16:29;;;;;;;5.95;5.45;;;18.30;1.40;;;19.84;74.95;95724.95;645994;212;31680;-70
2021/06/11 07:19:11;;;;;;;5.50;5.10;;;18.30;1.40;;;20.23;75.27;95727.66;645293;212;31615;-70
2021/06/11 07:21:54;;;;;;;5.60;5.10;;;18.60;1.40;;;20.33;74.46;95725.94;645667;216;31641;-72
2021/06/11 07:24:34;;;;;;;5.87;5.28;;;18.70;1.40;;;20.35;73.99;95728.21;647403;212;31670;-71
2021/06/11 07:27:19;;;;;;;5.57;5.07;;;18.70;1.40;;;20.38;75.46;95730.73;646406;216;31551;-71
2021/06/11 07:30:01;;;;;;;5.75;5.22;;;19.00;1.40;;;20.31;74.90;95733.50;649781;216;31703;-71
2021/06/11 07:35:51;;;;;;;6.10;5.40;;;19.00;1.40;;;20.55;71.88;95733.77;648499;212;31655;-71
2021/06/11 07:38:33;;;;;;;6.10;5.50;;;19.10;1.40;;;20.28;72.91;95735.33;648162;212;31735;-71
2021/06/11 07:41:15;;;;;;;6.00;5.50;;;19.00;1.40;;;20.59;72.13;95734.25;648398;216;31518;-71
2021/06/11 07:44:00;;;;;;;5.60;5.10;;;19.10;1.40;;;20.89;71.33;95740.04;646091;212;31536;-71
2021/06/11 07:46:41;;;;;;;6.45;5.95;;;19.40;1.40;;;21.18;70.58;95732.99;647394;212;31539;-70
2021/06/11 07:49:29;;;;;;;6.22;5.72;;;19.50;1.40;;;21.23;70.64;95729.56;645296;216;31573;-71
2021/06/11 07:52:17;;;;;;;6.03;5.53;;;19.60;1.40;;;21.28;69.75;95731.92;646370;216;31998;-71
2021/06/11 07:54:58;;;;;;;6.43;5.93;;;19.60;1.40;;;21.28;70.50;95728.45;647184;212;31596;-71
2021/06/11 07:57:40;;;;;;;5.95;5.45;;;19.60;1.40;;;21.33;71.46;95728.09;645023;212;31651;-70
2021/06/11 08:00:25;;;;;;;6.32;5.72;;;19.60;1.40;;;22.01;71.32;95727.73;646884;212;31786;-71
2021/06/11 08:03:07;;;;;;;6.03;5.53;;;20.20;1.40;;;22.10;67.69;95729.47;646449;212;31649;-71
2021/06/11 08:05:48;;;;;;;5.85;5.45;;;20.40;1.40;;;22.25;68.00;95726.63;645622;216;31602;-71
2021/06/11 08:08:30;;;;;;;5.53;4.93;;;20.70;1.40;;;22.15;67.09;95725.19;619950;222;31889;-71
2021/06/11 08:11:12;;;;;;;5.70;5.10;;;20.60;1.40;;;22.40;66.23;95729.58;647821;216;32677;-71
2021/06/11 08:13:54;;;;;;;6.35;5.75;;;20.70;1.40;;;22.44;66.69;95726.36;643834;216;32083;-71
2021/06/11 08:16:40;;;;;;;5.87;5.37;;;20.70;1.40;;;22.59;66.78;95725.19;647512;216;31697;-72
2021/06/11 08:19:28;;;;;;;6.00;5.50;;;20.80;1.40;;;22.94;64.36;95726.91;647610;216;31637;-71
2021/06/11 08:22:10;;;;;;;5.25;4.85;;;21.30;1.40;;;22.86;64.29;95723.41;648709;212;31653;-71
2021/06/11 08:27:29;;;;;;;5.90;5.40;;;21.00;1.40;;;22.76;65.20;95727.31;648314;216;32147;-71
2021/06/11 08:30:12;;;;;;;6.20;5.70;;;21.30;1.40;;;22.68;62.80;95731.64;648712;214;31571;-72
2021/06/11 08:32:53;;;;;;;5.53;5.03;;;21.10;1.40;;;22.93;62.61;95728.38;646761;216;31591;-72
2021/06/11 08:35:52;;;;;;;5.70;5.20;;;21.00;1.40;;;22.60;60.04;95728.95;647530;216;32330;-71
2021/06/11 08:38:33;;;;;;;6.90;5.00;;;21.00;1.40;;;22.72;59.75;95728.31;648324;216;32402;-71
2021/06/11 08:41:18;;;;;;;5.50;5.10;;;21.10;1.40;;;22.96;59.13;95722.89;646215;216;31660;-71
2021/06/11 08:44:00;;;;;;;5.00;4.60;;;21.10;1.40;;;23.00;60.36;95717.80;646229;212;31615;-70
2021/06/11 08:46:41;;;;;;;5.35;4.75;;;21.40;1.40;;;23.19;60.16;95720.66;648777;212;31610;-71
2021/06/11 08:49:24;;;;;;;5.07;4.60;;;21.30;1.40;;;22.75;60.75;95724.30;648992;216;31590;-71
2021/06/11 08:52:08;;;;;;;5.35;4.90;;;21.10;1.40;;;22.54;60.57;95724.58;646278;216;31752;-71
2021/06/11 08:54:49;;;;;;;5.50;5.00;;;20.90;1.40;;;23.55;59.65;95725.41;647180;216;31628;-71
2021/06/11 08:57:34;;;;;;;5.10;4.60;;;21.80;1.40;;;23.96;58.90;95730.44;647808;212;31926;-72
2021/06/11 09:00:16;;;;;;;5.62;5.20;;;22.30;1.40;;;24.47;56.53;95728.06;648544;212;32288;-71
2021/06/11 09:03:13;;;;;;;5.68;5.18;;;22.70;1.40;;;24.68;56.83;95721.17;642966;215;31592;-72
2021/06/11 09:06:14;;;;;;;6.00;5.50;;;23.00;1.40;;;24.99;56.46;95724.86;618043;226;31933;-71
2021/06/11 09:08:56;;;;;;;5.90;5.40;;;22.50;1.40;;;24.55;55.59;95726.61;646743;212;31706;-71
2021/06/11 09:11:37;;;;;;;6.10;5.60;;;22.20;1.40;;;24.65;54.38;95725.75;646955;212;31758;-71
2021/06/11 09:14:22;;;;;;;6.68;5.97;;;21.90;1.40;;;23.89;56.84;95728.09;644613;216;32247;-70
2021/06/11 09:17:01;;;;;;;6.60;6.00;;;21.50;1.40;;;23.84;57.94;95729.38;646560;216;31556;-71
2021/06/11 09:19:43;;;;;;;6.05;5.50;;;21.10;1.40;;;23.34;57.92;95731.40;646765;212;31593;-70
2021/06/11 09:22:24;;;;;;;6.37;5.78;;;21.60;1.40;;;24.17;55.78;95731.97;645198;216;31734;-71
2021/06/11 09:25:20;;;;;;;5.80;5.30;;;22.70;1.40;;;25.01;54.54;95726.05;646354;216;31681;-71
2021/06/11 09:28:04;;;;;;;6.20;5.70;;;24.00;1.40;;;27.27;49.28;95731.79;646786;212;31946;-71
2021/06/11 09:30:46;;;;;;;5.60;5.10;;;25.80;1.40;;;27.88;47.71;95731.02;646591;216;31747;-72
2021/06/11 09:35:54;;;;;;;5.10;4.67;;;26.10;1.40;;;29.78;45.91;95723.57;647668;216;42014;-70
2021/06/11 09:38:36;;;;;;;5.50;4.40;;;26.90;1.40;;;30.42;40.71;95723.36;645283;212;33488;-72
2021/06/11 09:41:23;;;;;;;4.60;4.20;;;26.90;1.40;;;30.82;42.15;95720.50;646973;216;31690;-73
2021/06/11 09:44:11;;;;;;;4.00;3.70;;;27.70;1.40;;;31.57;41.30;95720.95;647429;212;31623;-71
2021/06/11 09:46:53;;;;;;;4.40;4.00;;;28.10;1.40;;;32.24;37.45;95723.23;646880;216;32192;-71
2021/06/11 09:49:43;;;;;;;3.92;3.72;;;27.90;1.40;;;34.13;36.89;95716.45;648055;212;31822;-72
2021/06/11 09:52:25;;;;;;;3.67;3.47;;;28.40;1.40;;;33.87;36.45;95717.41;646898;216;31561;-72
2021/06/11 09:55:07;;;;;;;3.87;3.58;;;29.00;1.40;;;34.32;39.43;95717.03;647602;212;31602;-72
2021/06/11 09:57:49;;;;;;;3.90;3.60;;;29.20;1.40;;;35.24;32.66;95718.09;646255;216;31731;-72
2021/06/11 10:00:33;;;;;;;3.42;3.22;;;28.90;1.40;;;32.52;34.77;95724.59;646884;212;31715;-73
2021/06/11 10:03:15;;;;;;;4.20;3.90;;;27.80;1.40;;;35.25;35.68;95714.56;647100;216;31699;-72
2021/06/11 10:05:56;;;;;;;3.90;3.70;;;28.60;1.40;;;35.25;34.68;95719.16;647242;213;31736;-73
2021/06/11 10:08:38;;;;;;;3.85;3.55;;;29.00;1.40;;;34.94;34.81;95718.16;617833;226;42615;-72
2021/06/11 10:11:25;;;;;;;4.10;3.80;;;28.80;1.40;;;36.54;30.20;95714.49;619061;226;32029;-72
2021/06/11 10:14:05;;;;;;;4.18;3.87;;;29.30;1.40;;;36.95;29.26;95711.55;644916;212;31876;-72
2021/06/11 10:16:46;;;;;;;4.20;3.80;;;29.80;1.40;;;37.55;30.57;95713.22;646665;216;31902;-72
2021/06/11 10:19:28;;;;;;;4.00;3.80;;;29.90;1.40;;;36.66;30.88;95718.11;647433;212;42031;-72
2021/06/11 10:22:10;;;;;;;4.70;4.40;;;27.90;1.40;;;33.71;32.91;95718.34;647000;212;31593;-72
2021/06/11 10:24:55;;;;;;;4.60;4.30;;;26.10;1.40;;;34.18;33.85;95715.94;644819;212;31713;-72
2021/06/11 10:27:42;;;;;;;4.12;3.83;;;27.80;1.40;;;34.79;33.25;95716.70;645944;216;31738;-73
2021/06/11 10:30:26;;;;;;;4.45;4.05;;;28.80;1.40;;;33.50;34.61;95724.61;646626;212;32354;-71
2021/06/11 10:35:54;;;;;;;4.60;4.30;;;25.70;1.40;;;32.85;33.67;95721.47;646951;212;31609;-71
2021/06/11 10:38:38;;;;;;;3.53;3.12;;;27.20;1.40;;;33.99;30.74;95718.75;646532;213;31603;-72
2021/06/11 10:41:22;;;;;;;3.80;3.50;;;28.40;1.40;;;34.79;31.52;95717.37;645795;212;31643;-72
2021/06/11 10:44:03;;;;;;;3.90;3.70;;;28.10;1.40;;;35.74;29.87;95712.03;646991;212;31568;-72
2021/06/11 10:46:45;;;;;;;4.10;3.80;;;29.20;1.40;;;37.14;28.33;95713.78;648210;212;31733;-71
2021/06/11 10:49:33;;;;;;;4.00;3.70;;;29.30;1.40;;;36.33;30.03;95705.09;646055;216;42239;-73
2021/06/11 10:52:31;;;;;;;4.00;3.60;;;29.10;1.40;;;32.64;35.78;95708.89;646872;216;42224;-72
2021/06/11 10:55:35;;;;;;;4.40;4.10;;;27.80;1.40;;;33.08;33.51;95707.45;646057;216;31630;-74
2021/06/11 10:58:25;;;;;;;4.25;3.95;;;27.30;1.40;;;32.46;34.96;95704.77;644970;216;31638;-73
2021/06/11 11:01:21;;;;;;;4.10;3.90;;;27.40;1.40;;;32.77;34.94;95703.01;647961;216;31444;-73
2021/06/11 11:04:26;;;;;;;4.40;4.10;;;27.80;1.40;;;30.88;35.52;95697.08;646270;216;32062;-72
2021/06/11 11:07:30;;;;;;;4.40;4.10;;;26.90;1.40;;;30.23;36.36;95698.14;647771;216;31744;-72
2021/06/11 11:10:13;;;;;;;4.20;3.90;;;26.70;1.40;;;30.48;36.41;95700.16;647628;212;31884;-73
2021/06/11 11:13:02;;;;;;;10.15;4.40;;;26.90;1.40;;;30.49;40.04;95694.88;648097;216;31647;-72
2021/06/11 11:15:49;;;;;;;4.50;4.10;;;26.80;1.40;;;30.10;38.32;95689.80;636220;216;42577;-72
2021/06/11 11:18:41;;;;;;;3.70;3.40;;;26.60;1.40;;;29.66;38.39;95685.56;645346;212;32064;-74
2021/06/11 11:21:28;;;;;;;3.90;3.60;;;26.70;1.40;;;29.77;39.04;95686.23;619356;222;32251;-71
2021/06/11 11:24:16;;;;;;;4.50;3.80;;;26.50;1.40;;;30.22;36.64;95680.52;646912;216;31564;-73
2021/06/11 11:27:04;;;;;;;4.32;4.03;;;26.80;1.40;;;30.81;39.84;95676.69;645114;216;31578;-72
2021/06/11 11:29:46;;;;;;;3.80;3.50;;;27.40;1.40;;;30.03;38.01;95676.77;645266;216;31601;-72
2021/06/11 11:32:28;;;;;;;3.92;3.60;;;26.30;1.40;;;29.49;37.29;95676.83;646229;216;31638;-71
2021/06/11 11:35:53;;;;;;;4.50;4.10;;;26.40;1.40;;;28.14;40.39;95680.83;646136;214;31586;-71
2021/06/11 11:38:32;;;;;;;4.53;4.22;;;26.20;1.40;;;28.21;40.06;95674.34;617931;226;32004;-72
2021/06/11 11:41:14;;;;;;;3.90;3.50;;;26.10;1.40;;;29.19;40.30;95674.34;646577;216;31588;-71
2021/06/11 11:43:56;;;;;;;4.22;3.92;;;27.10;1.40;;;29.46;39.70;95679.16;619939;226;31926;-72
2021/06/11 11:46:43;;;;;;;4.28;4.00;;;27.30;1.40;;;28.80;39.50;95677.74;646123;212;31619;-72
2021/06/11 11:49:25;;;;;;;4.70;4.30;;;26.50;1.40;;;29.80;39.66;95678.02;646741;212;31571;-73
2021/06/11 11:54:49;;;;;;;3.50;3.30;;;28.60;1.40;;;33.04;31.17;95674.73;646853;216;32287;-71
2021/06/11 11:57:31;;;;;;;3.20;3.00;;;28.60;1.40;;;34.48;31.24;95664.03;645665;216;31909;-72
2021/06/11 12:00:13;;;;;;;3.92;3.62;;;28.80;1.40;;;35.01;29.45;95669.11;619022;222;32223;-72
2021/06/11 12:02:57;;;;;;;3.10;2.90;;;29.20;1.40;;;33.97;31.08;95658.61;620260;222;32626;-72
2021/06/11 12:05:40;;;;;;;3.90;3.50;;;28.80;1.40;;;35.68;31.27;95651.41;646806;212;31737;-73
2021/06/11 12:08:21;;;;;;;3.30;3.10;;;28.80;1.40;;;37.13;29.05;95653.03;647204;216;42280;-72
2021/06/11 12:11:05;;;;;;;3.60;3.30;;;29.80;1.40;;;36.88;30.92;95648.36;647646;216;32332;-72
2021/06/11 12:13:47;;;;;;;4.00;3.60;;;29.80;1.40;;;38.15;27.73;95647.25;645805;212;31844;-72
2021/06/11 12:19:03;;;;;;;3.10;2.90;;;30.20;1.40;;;38.39;26.93;95644.38;645787;212;31667;-72
2021/06/11 12:21:54;;;;;;;4.03;3.72;;;29.90;1.40;;;37.85;27.89;95648.52;619430;222;32489;-73
2021/06/11 12:24:38;;;;;;;3.70;3.40;;;28.20;1.40;;;36.09;28.78;95647.38;646790;212;31579;-73
2021/06/11 12:27:22;;;;;;;3.42;3.22;;;27.00;1.40;;;33.45;31.09;95646.88;631815;218;42490;-72